createdAt,value
2023-03-27T00:01:16.065Z,95765.47
2023-03-27T00:03:17.839Z,95766.97
2023-03-27T00:05:20.570Z,95769.66
2023-03-27T00:07:22.702Z,95775.34
2023-03-27T00:09:25.706Z,95779.19
2023-03-27T00:11:28.518Z,95778.47
2023-03-27T00:13:30.566Z,95787.69
2023-03-27T00:15:33.926Z,95796.03
2023-03-27T00:17:35.487Z,95798.31
2023-03-27T00:19:37.199Z,95799.13
2023-03-27T00:21:39.168Z,95800.63
2023-03-27T00:23:42.258Z,95802.13
2023-03-27T00:25:43.950Z,95799.81
2023-03-27T00:27:45.485Z,95800.59
2023-03-27T00:29:47.099Z,95802.09
2023-03-27T00:31:48.632Z,95814.31
2023-03-27T00:33:51.180Z,95812.78
2023-03-27T00:35:53.496Z,95818.13
2023-03-27T00:37:55.923Z,95814.28
2023-03-27T00:39:57.456Z,95814.72
2023-03-27T00:41:58.994Z,95812.78
2023-03-27T00:44:00.548Z,95815.88
2023-03-27T00:46:07.980Z,95821.22
2023-03-27T00:48:09.988Z,95833.44
2023-03-27T00:50:18.852Z,95826.16
2023-03-27T00:52:21.322Z,95835.31
2023-03-27T00:54:27.139Z,95827.31
2023-03-27T00:56:28.835Z,95829.59
2023-03-27T00:58:36.515Z,95828.06
2023-03-27T01:00:39.238Z,95838.78
2023-03-27T01:02:42.698Z,95846.81
2023-03-27T01:04:45.992Z,95843.38
2023-03-27T01:06:51.500Z,95852.56
2023-03-27T01:08:54.403Z,95857.13
2023-03-27T01:11:14.882Z,95860.19
2023-03-27T01:13:44.380Z,95863.97
2023-03-27T01:15:51.478Z,95858.25
2023-03-27T01:18:07.196Z,95871.59
2023-03-27T01:20:32.359Z,95876.91
2023-03-27T01:23:06.215Z,95885.31
2023-03-27T01:25:42.268Z,95893.69
2023-03-27T01:28:04.521Z,95896.00
2023-03-27T01:30:18.685Z,95891.78
2023-03-27T01:33:01.406Z,95893.66
2023-03-27T01:35:24.929Z,95902.00
2023-03-27T01:38:03.791Z,95900.41
2023-03-27T01:40:46.709Z,95915.63
2023-03-27T01:42:54.009Z,95911.41
2023-03-27T01:45:06.757Z,95930.06
2023-03-27T01:47:16.531Z,95922.47
2023-03-27T01:49:34.012Z,95925.56
2023-03-27T01:51:39.463Z,95933.53
2023-03-27T01:53:52.168Z,95930.81
2023-03-27T01:56:00.415Z,95936.59
2023-03-27T01:58:14.396Z,95944.94
2023-03-27T02:00:22.400Z,95944.53
2023-03-27T02:02:30.935Z,95957.16
2023-03-27T02:04:48.793Z,95949.19
2023-03-27T02:06:57.095Z,95961.34
2023-03-27T02:09:04.896Z,95976.50
2023-03-27T02:11:07.670Z,95970.06
2023-03-27T02:13:34.955Z,95981.00
2023-03-27T02:15:41.199Z,95978.72
2023-03-27T02:18:04.577Z,95990.50
2023-03-27T02:20:14.742Z,95993.13
2023-03-27T02:22:16.966Z,96005.31
2023-03-27T02:24:24.323Z,96006.09
2023-03-27T02:26:25.890Z,96000.00
2023-03-27T02:28:48.660Z,96011.38
2023-03-27T02:31:32.660Z,96017.47
2023-03-27T02:33:34.232Z,96013.59
2023-03-27T02:35:55.524Z,96026.88
2023-03-27T02:38:23.397Z,96027.22
2023-03-27T02:40:39.873Z,96037.16
2023-03-27T02:43:23.241Z,96043.28
2023-03-27T02:45:37.184Z,96035.69
2023-03-27T02:47:52.596Z,96049.28
2023-03-27T02:50:01.752Z,96044.31
2023-03-27T02:52:07.376Z,96052.34
2023-03-27T02:54:17.030Z,96058.38
2023-03-27T02:56:22.104Z,96070.41
2023-03-27T02:58:39.757Z,96078.06
2023-03-27T03:00:50.505Z,96073.81
2023-03-27T03:03:36.187Z,96088.34
2023-03-27T03:05:45.614Z,96097.09
2023-03-27T03:07:48.555Z,96108.78
2023-03-27T03:09:50.264Z,96101.66
2023-03-27T03:11:53.384Z,96112.72
2023-03-27T03:13:56.592Z,96111.06
2023-03-27T03:15:58.886Z,96114.44
2023-03-27T03:18:00.539Z,96124.81
2023-03-27T03:20:02.078Z,96128.97
2023-03-27T03:22:04.666Z,96125.88
2023-03-27T03:24:07.659Z,96145.78
2023-03-27T03:26:09.162Z,96147.19
2023-03-27T03:28:26.112Z,96143.66
2023-03-27T03:30:30.183Z,96158.47
2023-03-27T03:32:39.534Z,96157.09
2023-03-27T03:34:46.468Z,96168.81
2023-03-27T03:36:50.231Z,96170.31
2023-03-27T03:38:56.917Z,96170.97
2023-03-27T03:40:59.551Z,96175.94
2023-03-27T03:43:01.469Z,96191.19
2023-03-27T03:45:05.154Z,96191.94
2023-03-27T03:47:07.208Z,96199.56
2023-03-27T03:49:09.145Z,96211.47
2023-03-27T03:51:11.035Z,96202.91
2023-03-27T03:53:14.094Z,96208.72
2023-03-27T03:55:16.100Z,96204.56
2023-03-27T03:57:18.367Z,96216.44
2023-03-27T03:59:33.542Z,96225.34
2023-03-27T04:02:01.467Z,96231.53
2023-03-27T04:04:05.699Z,96225.25
2023-03-27T04:06:27.418Z,96233.63
2023-03-27T04:08:36.017Z,96235.22
2023-03-27T04:10:39.502Z,96236.75
2023-03-27T04:12:49.872Z,96243.34
2023-03-27T04:15:13.455Z,96259.50
2023-03-27T04:17:33.268Z,96263.06
2023-03-27T04:19:36.623Z,96271.88
2023-03-27T04:21:42.203Z,96277.13
2023-03-27T04:23:45.537Z,96277.13
2023-03-27T04:25:49.693Z,96281.28
2023-03-27T04:27:58.714Z,96289.88
2023-03-27T04:30:15.768Z,96295.47
2023-03-27T04:32:59.957Z,96301.25
2023-03-27T04:35:25.650Z,96301.81
2023-03-27T04:37:48.559Z,96300.97
2023-03-27T04:40:20.653Z,96316.00
2023-03-27T04:42:23.445Z,96322.97
2023-03-27T04:44:26.088Z,96321.31
2023-03-27T04:46:27.969Z,96332.31
2023-03-27T04:48:38.319Z,96345.09
2023-03-27T04:50:52.086Z,96348.72
2023-03-27T04:53:08.667Z,96362.59
2023-03-27T04:55:14.825Z,96364.94
2023-03-27T04:57:22.540Z,96375.56
2023-03-27T04:59:24.553Z,96379.38
2023-03-27T05:01:44.649Z,96370.41
2023-03-27T05:04:05.319Z,96379.97
2023-03-27T05:06:21.225Z,96383.97
2023-03-27T05:08:23.825Z,96386.72
2023-03-27T05:10:25.569Z,96397.53
2023-03-27T05:12:27.903Z,96398.34
2023-03-27T05:14:34.564Z,96409.72
2023-03-27T05:16:37.057Z,96402.25
2023-03-27T05:18:42.101Z,96416.31
2023-03-27T05:20:48.691Z,96416.50
2023-03-27T05:22:54.977Z,96409.22
2023-03-27T05:25:06.466Z,96416.28
2023-03-27T05:27:08.378Z,96419.97
2023-03-27T05:29:11.377Z,96427.94
2023-03-27T05:31:19.241Z,96428.47
2023-03-27T05:33:39.898Z,96436.44
2023-03-27T05:35:46.666Z,96436.63
2023-03-27T05:37:50.044Z,96442.78
2023-03-27T05:40:00.261Z,96449.66
2023-03-27T05:42:01.937Z,96459.59
2023-03-27T05:44:03.913Z,96468.41
2023-03-27T05:46:10.188Z,96466.09
2023-03-27T05:48:12.753Z,96468.72
2023-03-27T05:50:17.935Z,96472.06
2023-03-27T05:52:19.846Z,96473.03
2023-03-27T05:54:21.560Z,96476.25
2023-03-27T05:56:49.440Z,96477.09
2023-03-27T05:58:51.309Z,96493.25
2023-03-27T06:00:54.157Z,96499.09
2023-03-27T06:02:59.605Z,96501.88
2023-03-27T06:05:16.929Z,96507.88
2023-03-27T06:07:23.100Z,96510.09
2023-03-27T06:09:25.278Z,96518.06
2023-03-27T06:11:47.507Z,96525.31
2023-03-27T06:13:49.373Z,96531.59
2023-03-27T06:15:55.100Z,96529.66
2023-03-27T06:18:12.538Z,96530.91
2023-03-27T06:20:15.318Z,96542.50
2023-03-27T06:22:24.233Z,96540.84
2023-03-27T06:24:26.397Z,96546.72
2023-03-27T06:26:28.192Z,96545.97
2023-03-27T06:28:34.112Z,96538.72
2023-03-27T06:30:39.470Z,96550.59
2023-03-27T06:33:00.554Z,96558.47
2023-03-27T06:35:02.929Z,96564.84
2023-03-27T06:37:18.250Z,96567.63
2023-03-27T06:39:20.444Z,96579.41
2023-03-27T06:41:27.543Z,96589.03
2023-03-27T06:43:52.640Z,96585.31
2023-03-27T06:46:06.708Z,96594.59
2023-03-27T06:48:26.507Z,96597.03
2023-03-27T06:50:32.922Z,96597.91
2023-03-27T06:52:35.031Z,96611.72
2023-03-27T06:54:51.994Z,96608.97
2023-03-27T06:56:53.614Z,96617.97
2023-03-27T06:58:56.732Z,96619.31
2023-03-27T07:01:01.745Z,96629.69
2023-03-27T07:03:11.734Z,96628.47
2023-03-27T07:05:24.506Z,96634.13
2023-03-27T07:07:28.110Z,96633.75
2023-03-27T07:09:29.711Z,96647.47
2023-03-27T07:11:37.062Z,96649.66
2023-03-27T07:13:43.472Z,96654.88
2023-03-27T07:15:55.110Z,96662.38
2023-03-27T07:18:03.158Z,96661.81
2023-03-27T07:20:06.420Z,96664.66
2023-03-27T07:22:08.953Z,96662.03
2023-03-27T07:24:11.775Z,96663.69
2023-03-27T07:26:13.493Z,96666.63
2023-03-27T07:28:38.586Z,96672.47
2023-03-27T07:30:44.516Z,96670.44
2023-03-27T07:32:46.924Z,96680.59
2023-03-27T07:34:48.793Z,96685.78
2023-03-27T07:37:25.752Z,96683.88
2023-03-27T07:39:46.199Z,96695.38
2023-03-27T07:41:49.270Z,96695.63
2023-03-27T07:43:57.277Z,96702.56
2023-03-27T07:46:00.122Z,96708.34
2023-03-27T07:48:08.635Z,96701.88
2023-03-27T07:50:11.775Z,96701.75
2023-03-27T07:52:16.480Z,96712.50
2023-03-27T07:54:31.514Z,96709.91
2023-03-27T07:56:33.964Z,96720.16
2023-03-27T07:58:55.139Z,96727.34
2023-03-27T08:01:02.310Z,96723.72
2023-03-27T08:03:08.367Z,96727.06
2023-03-27T08:05:11.456Z,96736.47
2023-03-27T08:07:13.491Z,96736.91
2023-03-27T08:09:17.544Z,96744.19
2023-03-27T08:11:30.366Z,96750.34
2023-03-27T08:13:33.129Z,96747.59
2023-03-27T08:15:39.202Z,96748.50
2023-03-27T08:17:54.585Z,96748.00
2023-03-27T08:20:03.890Z,96739.97
2023-03-27T08:22:07.045Z,96744.94
2023-03-27T08:24:22.029Z,96756.56
2023-03-27T08:26:46.553Z,96746.84
2023-03-27T08:28:48.439Z,96751.16
2023-03-27T08:30:51.039Z,96748.59
2023-03-27T08:32:53.849Z,96758.53
2023-03-27T08:34:55.737Z,96750.63
2023-03-27T08:36:58.576Z,96751.09
2023-03-27T08:39:09.827Z,96755.38
2023-03-27T08:41:55.169Z,96755.72
2023-03-27T08:44:03.894Z,96755.41
2023-03-27T08:46:07.744Z,96759.59
2023-03-27T08:48:22.108Z,96757.00
2023-03-27T08:50:32.661Z,96763.59
2023-03-27T08:52:50.056Z,96771.25
2023-03-27T08:55:18.487Z,96762.47
2023-03-27T08:57:35.571Z,96771.16
2023-03-27T08:59:43.668Z,96775.66
2023-03-27T09:01:55.720Z,96778.56
2023-03-27T09:04:21.803Z,96779.59
2023-03-27T09:06:27.801Z,96782.47
2023-03-27T09:08:54.221Z,96789.47
2023-03-27T09:11:21.221Z,96789.66
2023-03-27T09:13:46.981Z,96790.22
2023-03-27T09:16:02.238Z,96801.97
2023-03-27T09:18:11.537Z,96802.13
2023-03-27T09:20:21.783Z,96799.63
2023-03-27T09:22:34.203Z,96796.56
2023-03-27T09:24:50.783Z,96796.25
2023-03-27T09:27:07.492Z,96798.81
2023-03-27T09:29:25.605Z,96787.91
2023-03-27T09:31:46.856Z,96796.72
2023-03-27T09:33:48.710Z,96800.09
2023-03-27T09:35:50.514Z,96799.66
2023-03-27T09:37:58.639Z,96800.34
2023-03-27T09:40:01.326Z,96793.06
2023-03-27T09:42:17.119Z,96800.44
2023-03-27T09:44:28.621Z,96798.03
2023-03-27T09:46:37.950Z,96800.22
2023-03-27T09:48:50.312Z,96805.53
2023-03-27T09:50:52.186Z,96797.97
2023-03-27T09:53:21.551Z,96801.91
2023-03-27T09:55:52.645Z,96804.22
2023-03-27T09:58:23.091Z,96796.97
2023-03-27T10:00:30.749Z,96795.88
2023-03-27T10:02:32.891Z,96788.97
2023-03-27T10:04:36.685Z,96805.19
2023-03-27T10:06:48.104Z,96797.41
2023-03-27T10:09:01.597Z,96804.72
2023-03-27T10:11:21.863Z,96795.16
2023-03-27T10:13:29.859Z,96798.66
2023-03-27T10:15:35.536Z,96803.69
2023-03-27T10:17:39.652Z,96794.47
2023-03-27T10:19:46.394Z,96805.59
2023-03-27T10:21:47.962Z,96789.88
2023-03-27T10:24:04.029Z,96810.59
2023-03-27T10:26:25.433Z,96803.03
2023-03-27T10:28:34.497Z,96809.63
2023-03-27T10:31:01.939Z,96810.72
2023-03-27T10:33:31.963Z,96821.31
2023-03-27T10:36:06.131Z,96821.72
2023-03-27T10:38:14.809Z,96820.53
2023-03-27T10:40:36.308Z,96821.19
2023-03-27T10:42:48.758Z,96818.56
2023-03-27T10:44:54.393Z,96822.09
2023-03-27T10:47:00.904Z,96819.03
2023-03-27T10:49:16.848Z,96816.56
2023-03-27T10:51:45.892Z,96807.59
2023-03-27T10:53:56.918Z,96841.44
2023-03-27T10:56:34.589Z,96837.88
2023-03-27T10:58:47.171Z,96845.16
2023-03-27T11:00:58.796Z,96851.63
2023-03-27T11:03:11.973Z,96847.31
2023-03-27T11:05:19.152Z,96842.81
2023-03-27T11:07:37.923Z,96854.63
2023-03-27T11:09:59.000Z,96866.63
2023-03-27T11:12:14.806Z,96866.53
2023-03-27T11:15:02.450Z,96847.25
2023-03-27T11:17:07.580Z,96845.91
2023-03-27T11:19:43.673Z,96858.38
2023-03-27T11:22:32.277Z,96860.72
2023-03-27T11:24:45.391Z,96845.03
2023-03-27T11:27:03.358Z,96850.53
2023-03-27T11:29:11.174Z,96855.25
2023-03-27T11:31:38.572Z,96866.94
2023-03-27T11:33:49.882Z,96879.63
2023-03-27T11:36:01.464Z,96885.13
2023-03-27T11:38:28.719Z,96886.56
2023-03-27T11:40:40.087Z,96893.00
2023-03-27T11:42:44.569Z,96892.16
2023-03-27T11:44:48.123Z,96886.34
2023-03-27T11:47:37.175Z,96881.53
2023-03-27T11:50:06.444Z,96889.97
2023-03-27T11:52:24.654Z,96893.41
2023-03-27T11:55:11.079Z,96894.84
2023-03-27T11:57:25.732Z,96884.63
2023-03-27T11:59:53.596Z,96882.81
2023-03-27T12:02:08.561Z,96890.69
2023-03-27T12:04:32.848Z,96876.97
2023-03-27T12:07:13.311Z,96890.72
2023-03-27T12:09:43.541Z,96887.81
2023-03-27T12:12:32.828Z,96891.00
2023-03-27T12:14:57.942Z,96892.19
2023-03-27T12:17:26.005Z,96890.72
2023-03-27T12:20:01.944Z,96892.81
2023-03-27T12:22:33.531Z,96884.00
2023-03-27T12:24:57.107Z,96879.38
2023-03-27T12:28:01.386Z,96880.63
2023-03-27T12:30:18.737Z,96875.16
2023-03-27T12:32:44.774Z,96886.50
2023-03-27T12:34:56.668Z,96885.34
2023-03-27T12:37:04.348Z,96892.19
2023-03-27T12:39:24.346Z,96892.47
2023-03-27T12:41:31.822Z,96895.19
2023-03-27T12:43:45.325Z,96893.88
2023-03-27T12:46:16.294Z,96880.59
2023-03-27T12:48:19.515Z,96890.72
2023-03-27T12:50:29.727Z,96896.47
2023-03-27T12:52:31.470Z,96893.31
2023-03-27T12:54:35.507Z,96891.00
2023-03-27T12:57:20.565Z,96880.28
2023-03-27T12:59:27.605Z,96888.41
2023-03-27T13:01:51.638Z,96891.00
2023-03-27T13:04:02.314Z,96893.28
2023-03-27T13:06:35.488Z,96888.31
2023-03-27T13:08:57.635Z,96898.50
2023-03-27T13:11:29.119Z,96892.66
2023-03-27T13:14:08.380Z,96891.44
2023-03-27T13:16:22.622Z,96890.72
2023-03-27T13:18:45.318Z,96892.59
2023-03-27T13:21:18.809Z,96891.91
2023-03-27T13:23:47.971Z,96890.19
2023-03-27T13:26:17.783Z,96901.38
2023-03-27T13:28:38.980Z,96898.22
2023-03-27T13:30:57.303Z,96895.84
2023-03-27T13:33:38.692Z,96900.09
2023-03-27T13:35:53.442Z,96901.75
2023-03-27T13:37:58.346Z,96908.19
2023-03-27T13:40:38.679Z,96913.34
2023-03-27T13:42:52.403Z,96910.00
2023-03-27T13:45:01.061Z,96906.00
2023-03-27T13:47:31.351Z,96917.22
2023-03-27T13:49:35.671Z,96911.56
2023-03-27T13:52:01.870Z,96909.41
2023-03-27T13:54:34.435Z,96910.91
2023-03-27T13:56:52.977Z,96907.78
2023-03-27T13:59:29.793Z,96904.00
2023-03-27T14:01:38.255Z,96917.63
2023-03-27T14:04:06.404Z,96910.41
2023-03-27T14:06:46.299Z,96922.66
2023-03-27T14:09:01.954Z,96933.13
2023-03-27T14:11:35.600Z,96917.75
2023-03-27T14:14:09.023Z,96906.75
2023-03-27T14:16:32.334Z,96924.53
2023-03-27T14:18:45.247Z,96919.28
2023-03-27T14:20:50.074Z,96916.94
2023-03-27T14:23:03.525Z,96914.13
2023-03-27T14:25:20.318Z,96919.84
2023-03-27T14:27:32.497Z,96914.22
2023-03-27T14:29:35.050Z,96917.16
2023-03-27T14:31:38.535Z,96929.44
2023-03-27T14:34:04.193Z,96930.91
2023-03-27T14:36:16.459Z,96935.31
2023-03-27T14:38:24.763Z,96930.72
2023-03-27T14:40:33.179Z,96935.19
2023-03-27T14:42:38.696Z,96949.34
2023-03-27T14:44:40.415Z,96943.03
2023-03-27T14:46:48.847Z,96937.22
2023-03-27T14:48:54.564Z,96924.03
2023-03-27T14:51:01.825Z,96929.25
2023-03-27T14:53:09.571Z,96933.00
2023-03-27T14:55:40.091Z,96938.78
2023-03-27T14:58:11.208Z,96940.28
2023-03-27T15:00:19.997Z,96952.31
2023-03-27T15:02:23.021Z,96938.47
2023-03-27T15:04:31.521Z,96944.34
2023-03-27T15:06:37.755Z,96949.66
2023-03-27T15:08:46.563Z,96953.88
2023-03-27T15:11:13.957Z,96948.78
2023-03-27T15:13:41.020Z,96948.53
2023-03-27T15:15:50.458Z,96946.31
2023-03-27T15:17:55.226Z,96946.84
2023-03-27T15:20:14.281Z,96943.41
2023-03-27T15:22:32.016Z,96960.56
2023-03-27T15:24:56.320Z,96964.75
2023-03-27T15:27:00.435Z,96959.25
2023-03-27T15:29:27.223Z,96950.06
2023-03-27T15:31:30.685Z,96964.66
2023-03-27T15:33:53.045Z,96974.50
2023-03-27T15:35:56.620Z,96965.00
2023-03-27T15:37:59.997Z,96956.41
2023-03-27T15:40:13.434Z,96967.88
2023-03-27T15:42:15.840Z,96960.53
2023-03-27T15:44:21.137Z,96953.38
2023-03-27T15:46:26.630Z,96973.34
2023-03-27T15:48:35.248Z,96970.66
2023-03-27T15:50:37.144Z,96972.56
2023-03-27T15:52:47.484Z,96970.09
2023-03-27T15:54:54.551Z,96980.06
2023-03-27T15:57:09.788Z,96979.81
2023-03-27T15:59:14.894Z,96979.09
2023-03-27T16:01:25.849Z,96970.75
2023-03-27T16:03:32.649Z,96987.25
2023-03-27T16:05:42.495Z,96990.81
2023-03-27T16:07:47.196Z,96991.66
2023-03-27T16:09:56.001Z,97002.53
2023-03-27T16:11:58.254Z,96993.31
2023-03-27T16:14:00.573Z,96978.72
2023-03-27T16:16:28.636Z,97003.59
2023-03-27T16:18:36.770Z,97008.25
2023-03-27T16:20:40.055Z,96994.84
2023-03-27T16:22:41.550Z,97000.97
2023-03-27T16:24:43.083Z,96995.63
2023-03-27T16:26:44.757Z,97006.00
2023-03-27T16:28:46.545Z,97001.38
2023-03-27T16:30:48.352Z,97013.66
2023-03-27T16:32:50.028Z,97010.56
2023-03-27T16:34:51.767Z,96999.00
2023-03-27T16:36:53.573Z,97004.72
2023-03-27T16:38:55.909Z,97017.31
2023-03-27T16:40:57.574Z,97021.09
2023-03-27T16:42:59.176Z,97028.41
2023-03-27T16:45:01.689Z,97024.66
2023-03-27T16:47:03.369Z,97029.25
2023-03-27T16:49:04.923Z,97031.91
2023-03-27T16:51:06.604Z,97033.41
2023-03-27T16:53:08.228Z,97030.56
2023-03-27T16:55:11.437Z,97030.34
2023-03-27T16:57:13.137Z,97030.78
2023-03-27T16:59:16.073Z,97026.63
2023-03-27T17:01:17.559Z,97033.34
2023-03-27T17:03:19.171Z,97032.44
2023-03-27T17:05:21.070Z,97040.31
2023-03-27T17:07:27.123Z,97045.97
2023-03-27T17:09:28.684Z,97049.00
2023-03-27T17:11:30.311Z,97048.56
2023-03-27T17:13:32.428Z,97041.03
2023-03-27T17:15:38.911Z,97051.00
2023-03-27T17:17:40.536Z,97056.66
2023-03-27T17:19:44.862Z,97072.69
2023-03-27T17:21:46.471Z,97072.75
2023-03-27T17:23:48.733Z,97080.63
2023-03-27T17:25:50.889Z,97086.13
2023-03-27T17:27:52.760Z,97092.38
2023-03-27T17:29:57.751Z,97106.41
2023-03-27T17:32:00.963Z,97111.91
2023-03-27T17:34:02.814Z,97126.28
2023-03-27T17:36:12.091Z,97118.78
2023-03-27T17:38:13.658Z,97127.72
2023-03-27T17:40:15.313Z,97132.44
2023-03-27T17:42:20.251Z,97130.06
2023-03-27T17:44:21.764Z,97120.28
2023-03-27T17:46:23.398Z,97129.00
2023-03-27T17:48:25.243Z,97135.16
2023-03-27T17:50:26.906Z,97131.84
2023-03-27T17:52:31.591Z,97137.66
2023-03-27T17:54:33.264Z,97133.25
2023-03-27T17:56:34.892Z,97137.88
2023-03-27T17:58:37.255Z,97145.75
2023-03-27T18:00:41.180Z,97154.41
2023-03-27T18:02:43.658Z,97148.09
2023-03-27T18:04:51.876Z,97150.47
2023-03-27T18:06:53.595Z,97162.41
2023-03-27T18:08:55.380Z,97169.03
2023-03-27T18:10:56.944Z,97163.34
2023-03-27T18:12:58.643Z,97168.59
2023-03-27T18:15:00.439Z,97167.34
2023-03-27T18:17:02.103Z,97164.84
2023-03-27T18:19:03.779Z,97172.56
2023-03-27T18:21:06.201Z,97177.22
2023-03-27T18:23:07.782Z,97178.94
2023-03-27T18:25:09.913Z,97183.75
2023-03-27T18:27:11.462Z,97184.41
2023-03-27T18:29:13.074Z,97185.28
2023-03-27T18:31:15.688Z,97184.50
2023-03-27T18:33:17.564Z,97180.63
2023-03-27T18:35:20.563Z,97183.91
2023-03-27T18:37:22.368Z,97185.69
2023-03-27T18:39:23.951Z,97184.47
2023-03-27T18:41:25.701Z,97177.47
2023-03-27T18:43:27.412Z,97184.47
2023-03-27T18:45:29.114Z,97185.69
2023-03-27T18:47:30.872Z,97193.75
2023-03-27T18:49:32.396Z,97201.06
2023-03-27T18:51:34.038Z,97190.44
2023-03-27T18:53:35.859Z,97191.22
2023-03-27T18:55:38.349Z,97194.59
2023-03-27T18:57:40.214Z,97196.84
2023-03-27T18:59:41.750Z,97204.41
2023-03-27T19:01:43.961Z,97195.56
2023-03-27T19:03:45.605Z,97206.22
2023-03-27T19:05:47.837Z,97209.03
2023-03-27T19:07:49.418Z,97212.69
2023-03-27T19:09:50.929Z,97212.56
2023-03-27T19:11:55.304Z,97210.44
2023-03-27T19:14:23.165Z,97212.38
2023-03-27T19:16:44.735Z,97209.56
2023-03-27T19:18:55.048Z,97215.50
2023-03-27T19:21:15.375Z,97213.25
2023-03-27T19:23:36.526Z,97221.25
2023-03-27T19:25:41.393Z,97219.28
2023-03-27T19:27:43.805Z,97215.16
2023-03-27T19:29:45.428Z,97217.50
2023-03-27T19:31:47.107Z,97225.13
2023-03-27T19:33:48.706Z,97219.44
2023-03-27T19:35:52.377Z,97228.78
2023-03-27T19:37:54.536Z,97224.41
2023-03-27T19:39:58.632Z,97237.81
2023-03-27T19:42:01.627Z,97236.69
2023-03-27T19:44:04.136Z,97232.06
2023-03-27T19:46:15.580Z,97233.59
2023-03-27T19:48:18.599Z,97238.38
2023-03-27T19:50:20.688Z,97239.63
2023-03-27T19:52:49.363Z,97243.78
2023-03-27T19:54:56.145Z,97239.03
2023-03-27T19:56:58.736Z,97249.31
2023-03-27T19:59:00.501Z,97241.59
2023-03-27T20:01:02.032Z,97236.69
2023-03-27T20:03:04.798Z,97239.03
2023-03-27T20:05:09.552Z,97241.47
2023-03-27T20:07:11.290Z,97243.56
2023-03-27T20:09:14.033Z,97245.81
2023-03-27T20:11:15.649Z,97242.56
2023-03-27T20:13:18.891Z,97245.59
2023-03-27T20:15:20.742Z,97251.31
2023-03-27T20:17:28.049Z,97247.84
2023-03-27T20:19:32.717Z,97254.44
2023-03-27T20:21:42.218Z,97260.03
2023-03-27T20:23:46.752Z,97259.44
2023-03-27T20:25:56.589Z,97262.56
2023-03-27T20:27:58.317Z,97267.03
2023-03-27T20:30:01.859Z,97276.75
2023-03-27T20:32:03.586Z,97276.06
2023-03-27T20:34:06.539Z,97277.25
2023-03-27T20:36:08.064Z,97279.50
2023-03-27T20:38:10.664Z,97276.91
2023-03-27T20:40:13.769Z,97279.16
2023-03-27T20:42:17.705Z,97272.78
2023-03-27T20:44:19.526Z,97275.81
2023-03-27T20:46:28.493Z,97269.69
2023-03-27T20:48:40.416Z,97277.94
2023-03-27T20:50:52.331Z,97279.91
2023-03-27T20:52:57.767Z,97282.41
2023-03-27T20:54:59.488Z,97282.72
2023-03-27T20:57:02.434Z,97274.91
2023-03-27T20:59:04.243Z,97279.53
2023-03-27T21:01:08.947Z,97281.75
2023-03-27T21:03:11.906Z,97283.03
2023-03-27T21:05:13.503Z,97288.09
2023-03-27T21:07:16.013Z,97280.72
2023-03-27T21:09:21.410Z,97281.00
2023-03-27T21:11:23.075Z,97282.06
2023-03-27T21:13:24.649Z,97286.88
2023-03-27T21:15:26.998Z,97279.81
2023-03-27T21:17:28.651Z,97285.47
2023-03-27T21:19:30.364Z,97276.03
2023-03-27T21:21:32.059Z,97277.94
2023-03-27T21:23:34.614Z,97282.41
2023-03-27T21:25:36.937Z,97288.94
2023-03-27T21:27:41.086Z,97287.81
2023-03-27T21:29:42.572Z,97299.88
2023-03-27T21:31:44.146Z,97291.47
2023-03-27T21:33:45.774Z,97290.41
2023-03-27T21:35:48.664Z,97293.81
2023-03-27T21:37:50.518Z,97301.59
2023-03-27T21:39:52.208Z,97300.97
2023-03-27T21:41:53.760Z,97292.09
2023-03-27T21:43:55.437Z,97298.75
2023-03-27T21:46:00.024Z,97298.63
2023-03-27T21:48:01.969Z,97297.41
2023-03-27T21:50:03.721Z,97301.66
2023-03-27T21:52:05.585Z,97291.66
2023-03-27T21:54:07.147Z,97307.31
2023-03-27T21:56:09.193Z,97304.88
2023-03-27T21:58:11.096Z,97310.28
2023-03-27T22:00:14.310Z,97310.94
2023-03-27T22:02:16.043Z,97314.53
2023-03-27T22:04:18.563Z,97315.13
2023-03-27T22:06:21.606Z,97316.13
2023-03-27T22:08:24.249Z,97317.91
2023-03-27T22:10:28.034Z,97324.13
2023-03-27T22:12:29.571Z,97316.38
2023-03-27T22:14:32.155Z,97318.13
2023-03-27T22:16:33.785Z,97320.94
2023-03-27T22:18:35.331Z,97312.84
2023-03-27T22:20:39.579Z,97321.63
2023-03-27T22:22:41.693Z,97316.97
2023-03-27T22:24:43.453Z,97323.03
2023-03-27T22:26:44.989Z,97317.94
2023-03-27T22:28:46.911Z,97324.66
2023-03-27T22:30:48.554Z,97317.66
2023-03-27T22:32:50.420Z,97324.75
2023-03-27T22:34:52.380Z,97325.81
2023-03-27T22:36:54.032Z,97327.38
2023-03-27T22:38:55.687Z,97322.53
2023-03-27T22:40:57.882Z,97335.13
2023-03-27T22:42:59.396Z,97340.56
2023-03-27T22:45:01.035Z,97330.56
2023-03-27T22:47:03.028Z,97331.06
2023-03-27T22:49:04.562Z,97331.97
2023-03-27T22:51:06.955Z,97334.38
2023-03-27T22:53:08.519Z,97336.16
2023-03-27T22:55:12.852Z,97346.81
2023-03-27T22:57:14.535Z,97344.84
2023-03-27T22:59:17.312Z,97341.97
2023-03-27T23:01:18.896Z,97348.59
2023-03-27T23:03:22.246Z,97342.28
2023-03-27T23:05:23.941Z,97344.59
2023-03-27T23:07:25.586Z,97347.25
2023-03-27T23:09:27.565Z,97348.81
2023-03-27T23:11:29.177Z,97352.16
2023-03-27T23:13:32.940Z,97340.31
2023-03-27T23:15:35.334Z,97355.28
2023-03-27T23:17:37.183Z,97355.03
2023-03-27T23:19:38.813Z,97359.91
2023-03-27T23:21:40.625Z,97362.44
2023-03-27T23:23:42.552Z,97368.22
2023-03-27T23:25:44.084Z,97366.78
2023-03-27T23:27:46.166Z,97372.00
2023-03-27T23:29:47.940Z,97369.44
2023-03-27T23:31:49.546Z,97372.78
2023-03-27T23:33:51.612Z,97377.75
2023-03-27T23:35:54.492Z,97377.31
2023-03-27T23:37:56.773Z,97388.38
2023-03-27T23:39:58.261Z,97390.06
2023-03-27T23:41:59.889Z,97394.25
2023-03-27T23:44:01.425Z,97391.38
2023-03-27T23:46:05.271Z,97388.19
2023-03-27T23:48:06.871Z,97395.16
2023-03-27T23:50:08.735Z,97387.06
2023-03-27T23:52:10.744Z,97392.94
2023-03-27T23:54:12.262Z,97390.06
2023-03-27T23:56:13.985Z,97394.72
2023-03-27T23:58:15.513Z,97396.25
